Time;durP1;ratioP1;P1;durP2;ratioP2;P2;SDS_P1;SDS_P2;PMS_P1;PMS_P2;Temp;Humidity;BMP_temperature;BMP_pressure;BME280_temperature;BME280_humidity;BME280_pressure;Samples;Min_cycle;Max_cycle;Signal;HPM_P1;HPM_P2
2023/07/11 00:00:59;;;;;;;;;;;28.00;52.40;;;;;;5033285;28;20007;-90
2023/07/11 00:03:28;;;;;;;;;;;28.00;52.40;;;;;;5031288;28;19904;-91
2023/07/11 00:06:05;;;;;;;;;;;28.00;52.40;;;;;;5043679;28;19958;-92
2023/07/11 00:08:40;;;;;;;;;;;28.00;52.40;;;;;;5035869;28;19909;-90
2023/07/11 00:11:06;;;;;;;;;;;28.00;52.40;;;;;;5041070;28;19954;-91
2023/07/11 00:13:35;;;;;;;;;;;28.00;52.40;;;;;;5041362;28;19905;-91
2023/07/11 00:16:34;;;;;;;;;;;27.90;52.40;;;;;;5040910;28;19920;-91
2023/07/11 00:18:59;;;;;;;;;;;27.90;52.40;;;;;;5023505;28;19904;-91
2023/07/11 00:21:24;;;;;;;;;;;27.90;52.40;;;;;;5041632;28;20305;-91
2023/07/11 00:23:50;;;;;;;;;;;27.90;52.40;;;;;;5036774;28;19966;-91
2023/07/11 00:26:23;;;;;;;;;;;27.90;52.40;;;;;;5039000;28;20001;-91
2023/07/11 00:28:51;;;;;;;;;;;27.90;52.40;;;;;;5041495;28;20004;-91
2023/07/11 00:31:17;;;;;;;;;;;27.90;52.80;;;;;;5041322;28;19905;-91
2023/07/11 00:33:43;;;;;;;;;;;27.80;52.40;;;;;;5058649;28;20278;-91
2023/07/11 00:36:09;;;;;;;;;;;27.80;52.40;;;;;;5038172;28;19913;-90
2023/07/11 00:38:34;;;;;;;;;;;27.80;52.40;;;;;;5040278;28;19923;-90
2023/07/11 00:41:05;;;;;;;;;;;27.80;52.40;;;;;;5041764;28;19905;-90
2023/07/11 00:43:31;;;;;;;;;;;27.70;52.40;;;;;;5041638;28;19999;-90
2023/07/11 00:46:03;;;;;;;;;;;27.80;52.40;;;;;;5030236;28;19963;-90
2023/07/11 00:48:30;;;;;;;;;;;27.70;52.40;;;;;;5051366;28;19909;-90
2023/07/11 00:50:56;;;;;;;;;;;27.70;52.40;;;;;;5032116;28;20266;-90
2023/07/11 00:53:25;;;;;;;;;;;27.70;52.40;;;;;;5025738;28;19905;-89
2023/07/11 00:55:54;;;;;;;;;;;27.70;52.40;;;;;;5041381;28;19987;-90
2023/07/11 00:58:21;;;;;;;;;;;27.70;52.40;;;;;;5040825;28;19905;-89
2023/07/11 01:00:46;;;;;;;;;;;27.70;52.50;;;;;;5037263;28;19999;-90
2023/07/11 01:03:15;;;;;;;;;;;27.70;52.50;;;;;;5040848;28;20537;-90
2023/07/11 01:05:49;;;;;;;;;;;27.70;52.50;;;;;;5051189;28;20288;-90
2023/07/11 01:08:15;;;;;;;;;;;27.70;52.50;;;;;;5041241;28;19908;-90
2023/07/11 01:10:41;;;;;;;;;;;27.60;52.50;;;;;;5033876;28;19905;-90
2023/07/11 01:13:09;;;;;;;;;;;27.60;52.50;;;;;;5039412;28;19909;-90
2023/07/11 01:15:36;;;;;;;;;;;27.60;52.50;;;;;;5029867;28;19937;-90
2023/07/11 01:18:01;;;;;;;;;;;27.60;52.50;;;;;;5038980;28;19909;-90
2023/07/11 01:20:27;;;;;;;;;;;27.60;52.50;;;;;;5035894;28;19995;-90
2023/07/11 01:22:52;;;;;;;;;;;27.60;52.50;;;;;;5023064;28;19931;-90
2023/07/11 01:25:21;;;;;;;;;;;27.60;52.50;;;;;;5027381;28;19904;-90
2023/07/11 01:27:49;;;;;;;;;;;27.50;52.50;;;;;;5021152;28;19908;-90
2023/07/11 01:30:20;;;;;;;;;;;27.60;52.50;;;;;;5039138;28;19904;-90
2023/07/11 01:32:48;;;;;;;;;;;27.50;52.50;;;;;;5033677;28;19924;-90
2023/07/11 01:35:15;;;;;;;;;;;27.50;52.90;;;;;;5026359;28;19904;-90
2023/07/11 01:37:40;;;;;;;;;;;27.50;52.50;;;;;;5039293;28;19949;-90
2023/07/11 01:40:06;;;;;;;;;;;27.50;52.50;;;;;;5027661;28;19956;-91
2023/07/11 01:42:32;;;;;;;;;;;27.50;52.50;;;;;;5033377;28;19909;-91
2023/07/11 01:44:58;;;;;;;;;;;27.50;52.50;;;;;;5040514;28;19905;-90
2023/07/11 01:47:23;;;;;;;;;;;27.40;52.50;;;;;;5024873;28;19920;-90
2023/07/11 01:49:51;;;;;;;;;;;27.40;52.50;;;;;;5040320;28;19953;-90
2023/07/11 01:52:18;;;;;;;;;;;27.40;52.50;;;;;;5040135;28;19912;-90
2023/07/11 01:54:47;;;;;;;;;;;27.40;52.50;;;;;;5040358;28;19909;-90
2023/07/11 01:57:13;;;;;;;;;;;27.40;52.50;;;;;;5040880;28;19905;-90
2023/07/11 01:59:40;;;;;;;;;;;27.40;52.50;;;;;;5044536;28;19954;-90
2023/07/11 02:02:09;;;;;;;;;;;27.40;52.50;;;;;;5044398;28;19985;-90
2023/07/11 02:04:35;;;;;;;;;;;27.40;52.50;;;;;;5044434;28;19905;-90
2023/07/11 02:07:04;;;;;;;;;;;27.30;52.50;;;;;;5043767;28;19966;-90
2023/07/11 02:09:47;;;;;;;;;;;27.30;52.50;;;;;;5026954;28;19917;-90
2023/07/11 02:12:14;;;;;;;;;;;27.30;52.50;;;;;;5044740;28;19916;-90
2023/07/11 02:14:42;;;;;;;;;;;27.30;52.50;;;;;;5044308;28;19912;-90
2023/07/11 02:17:08;;;;;;;;;;;27.30;52.50;;;;;;5043865;28;19904;-90
2023/07/11 02:19:36;;;;;;;;;;;27.30;52.50;;;;;;5043718;28;19924;-90
2023/07/11 02:22:02;;;;;;;;;;;27.30;52.50;;;;;;5043757;28;19904;-90
2023/07/11 02:24:27;;;;;;;;;;;27.30;52.50;;;;;;5043498;28;20432;-90
2023/07/11 02:26:53;;;;;;;;;;;27.30;52.50;;;;;;5044122;28;19974;-90
2023/07/11 02:29:24;;;;;;;;;;;27.30;52.50;;;;;;5027608;28;19909;-90
2023/07/11 02:31:50;;;;;;;;;;;27.30;52.60;;;;;;5023998;28;19905;-90
2023/07/11 02:34:15;;;;;;;;;;;27.20;52.50;;;;;;5035794;28;19919;-90
2023/07/11 02:36:44;;;;;;;;;;;27.20;52.50;;;;;;5040719;28;19912;-90
2023/07/11 02:39:18;;;;;;;;;;;27.20;52.50;;;;;;5040215;28;19932;-90
2023/07/11 02:41:44;;;;;;;;;;;27.20;52.50;;;;;;5051285;28;19908;-90
2023/07/11 02:44:10;;;;;;;;;;;27.20;52.50;;;;;;5033200;28;20439;-89
2023/07/11 02:46:35;;;;;;;;;;;27.20;52.50;;;;;;5032464;28;19923;-90
2023/07/11 02:49:08;;;;;;;;;;;27.20;52.50;;;;;;5049147;28;20179;-90
2023/07/11 02:51:38;;;;;;;;;;;27.20;52.50;;;;;;5056752;28;19944;-90
2023/07/11 02:54:04;;;;;;;;;;;27.10;52.50;;;;;;5037188;28;19905;-90
2023/07/11 02:56:29;;;;;;;;;;;27.10;52.50;;;;;;5041263;28;19931;-90
2023/07/11 02:59:06;;;;;;;;;;;27.10;52.40;;;;;;5027661;28;19916;-90
2023/07/11 03:01:33;;;;;;;;;;;27.10;52.50;;;;;;5049465;28;19905;-90
2023/07/11 03:04:16;;;;;;;;;;;27.10;52.40;;;;;;5041707;28;19966;-90
2023/07/11 03:06:49;;;;;;;;;;;27.10;52.50;;;;;;5022419;28;19912;-90
2023/07/11 03:09:18;;;;;;;;;;;27.10;52.50;;;;;;5025871;28;19913;-90
2023/07/11 03:11:46;;;;;;;;;;;27.10;52.50;;;;;;5039101;28;19912;-90
2023/07/11 03:14:18;;;;;;;;;;;27.00;52.40;;;;;;5035922;28;19916;-90
2023/07/11 03:16:46;;;;;;;;;;;27.00;52.40;;;;;;5057132;28;20022;-91
2023/07/11 03:19:12;;;;;;;;;;;27.00;52.40;;;;;;5042083;28;19904;-91
2023/07/11 03:21:37;;;;;;;;;;;27.00;52.40;;;;;;5030342;28;19917;-90
2023/07/11 03:24:10;;;;;;;;;;;27.00;52.40;;;;;;5029979;28;19920;-90
2023/07/11 03:26:50;;;;;;;;;;;27.00;52.40;;;;;;5032893;28;19934;-90
2023/07/11 03:29:19;;;;;;;;;;;27.00;52.40;;;;;;5045838;28;19909;-90
2023/07/11 03:31:54;;;;;;;;;;;27.00;52.40;;;;;;5042336;28;19905;-91
2023/07/11 03:34:40;;;;;;;;;;;27.00;52.40;;;;;;5042075;28;19928;-91
2023/07/11 03:37:10;;;;;;;;;;;27.00;52.50;;;;;;5026926;28;19905;-92
2023/07/11 03:39:37;;;;;;;;;;;27.00;52.40;;;;;;5021894;28;19912;-91
2023/07/11 03:42:03;;;;;;;;;;;27.00;52.40;;;;;;5034290;28;19905;-91
2023/07/11 03:44:28;;;;;;;;;;;26.90;52.40;;;;;;5022806;28;19916;-90
2023/07/11 03:46:57;;;;;;;;;;;26.90;52.40;;;;;;5038345;28;19962;-91
2023/07/11 03:49:27;;;;;;;;;;;27.00;52.40;;;;;;5037957;28;19956;-90
2023/07/11 03:51:52;;;;;;;;;;;26.90;52.40;;;;;;5020797;28;19911;-90
2023/07/11 03:54:18;;;;;;;;;;;26.90;52.40;;;;;;5021131;28;19992;-90
2023/07/11 03:56:43;;;;;;;;;;;26.90;52.40;;;;;;5037522;28;19909;-90
2023/07/11 03:59:28;;;;;;;;;;;26.90;52.40;;;;;;5021351;28;19955;-91
2023/07/11 04:01:53;;;;;;;;;;;26.90;52.40;;;;;;5027014;28;19995;-90
2023/07/11 04:04:19;;;;;;;;;;;26.90;52.40;;;;;;5025205;28;19965;-91
2023/07/11 04:07:03;;;;;;;;;;;26.90;52.40;;;;;;5014384;28;19979;-91
2023/07/11 04:09:29;;;;;;;;;;;26.90;52.40;;;;;;5015230;28;19909;-90
2023/07/11 04:12:04;;;;;;;;;;;26.90;52.40;;;;;;5021769;28;19938;-91
2023/07/11 04:14:33;;;;;;;;;;;26.90;52.40;;;;;;5037133;28;19905;-91
2023/07/11 04:16:58;;;;;;;;;;;26.90;52.40;;;;;;5020937;28;19905;-91
2023/07/11 04:19:27;;;;;;;;;;;26.90;52.40;;;;;;5021227;28;19916;-91
2023/07/11 04:22:10;;;;;;;;;;;26.90;52.40;;;;;;5032209;28;19913;-90
2023/07/11 04:27:28;;;;;;;;;;;26.90;52.30;;;;;;5022404;28;19944;-91
2023/07/11 04:30:04;;;;;;;;;;;26.90;52.30;;;;;;5037812;28;19951;-91
2023/07/11 04:32:33;;;;;;;;;;;26.90;52.30;;;;;;5030082;28;19932;-91
2023/07/11 04:35:14;;;;;;;;;;;27.00;52.30;;;;;;5036109;28;19945;-91
2023/07/11 04:37:40;;;;;;;;;;;27.00;52.30;;;;;;5026453;28;19905;-91
2023/07/11 04:40:12;;;;;;;;;;;27.00;52.20;;;;;;5036468;28;19944;-90
2023/07/11 04:42:38;;;;;;;;;;;27.00;52.20;;;;;;5019558;28;19905;-91
2023/07/11 04:45:13;;;;;;;;;;;27.00;52.20;;;;;;5035933;28;20360;-91
2023/07/11 04:47:45;;;;;;;;;;;27.00;52.10;;;;;;5018877;28;19909;-90
2023/07/11 04:50:11;;;;;;;;;;;27.00;52.10;;;;;;5036631;28;20255;-92
2023/07/11 04:52:37;;;;;;;;;;;27.00;52.10;;;;;;5033910;28;19913;-91
2023/07/11 04:57:57;;;;;;;;;;;27.00;52.10;;;;;;5017831;28;19909;-91
2023/07/11 05:00:40;;;;;;;;;;;27.00;52.10;;;;;;5008272;28;19905;-91
2023/07/11 05:03:14;;;;;;;;;;;27.10;52.10;;;;;;5016293;28;19914;-91
2023/07/11 05:05:40;;;;;;;;;;;27.10;52.10;;;;;;5019325;28;20148;-91
2023/07/11 05:08:05;;;;;;;;;;;27.10;52.00;;;;;;5017001;28;20290;-91
2023/07/11 05:10:31;;;;;;;;;;;27.20;52.10;;;;;;5018230;28;19905;-91
2023/07/11 05:12:56;;;;;;;;;;;27.20;52.00;;;;;;5019675;28;19909;-91
2023/07/11 05:15:22;;;;;;;;;;;27.20;52.00;;;;;;5020351;28;19948;-91
2023/07/11 05:17:47;;;;;;;;;;;27.30;52.40;;;;;;5035975;28;19905;-91
2023/07/11 05:20:13;;;;;;;;;;;27.30;51.90;;;;;;5031164;28;19955;-91
2023/07/11 05:22:39;;;;;;;;;;;27.30;51.90;;;;;;5033853;28;20183;-91
2023/07/11 05:25:07;;;;;;;;;;;27.40;51.90;;;;;;5018888;28;20003;-91
2023/07/11 05:27:33;;;;;;;;;;;27.40;51.90;;;;;;5035087;28;19908;-92
2023/07/11 05:30:05;;;;;;;;;;;27.40;51.80;;;;;;5018045;28;19950;-91
2023/07/11 05:32:40;;;;;;;;;;;27.40;51.70;;;;;;5023175;28;19916;-91
2023/07/11 05:35:06;;;;;;;;;;;27.40;51.70;;;;;;5019033;28;20011;-91
2023/07/11 05:37:31;;;;;;;;;;;27.50;51.70;;;;;;5018791;28;19999;-91
2023/07/11 05:40:21;;;;;;;;;;;27.50;51.70;;;;;;5035159;28;19905;-91
2023/07/11 05:42:47;;;;;;;;;;;27.50;51.70;;;;;;5031850;28;19909;-92
2023/07/11 05:45:12;;;;;;;;;;;27.50;51.60;;;;;;5019865;28;19916;-91
2023/07/11 05:47:41;;;;;;;;;;;27.60;51.60;;;;;;5030864;28;19936;-91
2023/07/11 05:50:08;;;;;;;;;;;27.60;51.60;;;;;;5027144;28;19964;-91
2023/07/11 05:52:36;;;;;;;;;;;27.60;51.60;;;;;;5030461;28;19905;-91
2023/07/11 05:55:10;;;;;;;;;;;27.70;51.60;;;;;;5027498;28;19912;-91
2023/07/11 05:57:36;;;;;;;;;;;27.70;51.50;;;;;;5034943;28;19905;-91
2023/07/11 06:00:14;;;;;;;;;;;27.70;51.50;;;;;;5025237;28;20203;-91
2023/07/11 06:02:46;;;;;;;;;;;27.70;51.80;;;;;;5015954;28;19912;-91
2023/07/11 06:05:15;;;;;;;;;;;27.80;51.40;;;;;;5017125;28;19905;-92
2023/07/11 06:07:41;;;;;;;;;;;27.80;51.40;;;;;;5033288;28;19916;-90
2023/07/11 06:10:06;;;;;;;;;;;27.80;51.30;;;;;;5023432;28;20347;-91
2023/07/11 06:12:33;;;;;;;;;;;27.90;51.30;;;;;;5023199;28;19905;-91
2023/07/11 06:14:59;;;;;;;;;;;27.90;51.30;;;;;;5025710;28;19927;-91
2023/07/11 06:17:27;;;;;;;;;;;28.00;51.30;;;;;;5023473;28;20003;-91
2023/07/11 06:19:56;;;;;;;;;;;28.00;51.20;;;;;;5022493;28;19913;-91
2023/07/11 06:22:25;;;;;;;;;;;28.00;51.20;;;;;;5008213;28;20310;-92
2023/07/11 06:24:53;;;;;;;;;;;28.10;51.30;;;;;;5020375;28;19905;-91
2023/07/11 06:27:19;;;;;;;;;;;28.10;51.40;;;;;;5015865;28;20061;-91
2023/07/11 06:29:46;;;;;;;;;;;28.10;51.20;;;;;;5010893;28;20126;-90
2023/07/11 06:32:15;;;;;;;;;;;28.10;51.20;;;;;;5007994;28;19959;-90
2023/07/11 06:34:47;;;;;;;;;;;28.20;51.20;;;;;;5022890;28;20248;-91
2023/07/11 06:37:12;;;;;;;;;;;28.20;51.10;;;;;;5011228;28;20015;-91
2023/07/11 06:39:39;;;;;;;;;;;28.30;51.10;;;;;;5019478;28;19999;-91
2023/07/11 06:42:05;;;;;;;;;;;28.40;51.10;;;;;;5012094;28;19905;-91
2023/07/11 06:44:30;;;;;;;;;;;28.40;51.00;;;;;;5022445;28;19905;-91
2023/07/11 06:46:56;;;;;;;;;;;28.50;50.90;;;;;;5011061;28;20172;-92
2023/07/11 06:49:25;;;;;;;;;;;28.50;50.80;;;;;;5023283;28;20360;-91
2023/07/11 06:51:53;;;;;;;;;;;28.60;50.80;;;;;;5021416;28;19905;-91
2023/07/11 06:54:29;;;;;;;;;;;28.70;50.80;;;;;;5010097;28;20005;-91
2023/07/11 06:57:00;;;;;;;;;;;28.70;50.70;;;;;;5012650;28;19920;-92
2023/07/11 06:59:29;;;;;;;;;;;28.80;50.70;;;;;;5015740;28;19916;-91
2023/07/11 07:01:55;;;;;;;2.20;1.60;;;28.80;50.70;;;;;;5014133;28;20104;-91
2023/07/11 07:04:23;;;;;;;1.80;1.50;;;28.80;50.60;;;;;;5012678;28;20281;-91
2023/07/11 07:07:04;;;;;;;;;;;28.90;50.60;;;;;;5013941;28;20271;-91
2023/07/11 07:09:32;;;;;;;;;;;28.90;50.50;;;;;;5028472;28;19925;-91
2023/07/11 07:12:21;;;;;;;;;;;29.00;50.50;;;;;;5018484;28;19948;-91
2023/07/11 07:14:56;;;;;;;1.70;1.60;;;29.10;50.50;;;;;;5013792;28;20354;-91
2023/07/11 07:17:24;;;;;;;1.70;1.60;;;29.10;50.40;;;;;;5014648;28;20277;-92
2023/07/11 07:19:50;;;;;;;2.45;1.70;;;29.20;50.40;;;;;;5002484;28;20543;-92
2023/07/11 07:22:16;;;;;;;1.83;1.63;;;29.20;50.30;;;;;;5010490;28;20319;-92
2023/07/11 07:24:52;;;;;;;2.05;1.70;;;29.30;50.40;;;;;;5010874;28;20184;-92
2023/07/11 07:27:21;;;;;;;1.70;1.60;;;29.40;50.40;;;;;;5016049;28;20169;-91
2023/07/11 07:29:47;;;;;;;2.45;1.63;;;29.40;50.30;;;;;;5017538;28;20212;-91
2023/07/11 07:32:12;;;;;;;1.77;1.67;;;29.50;50.20;;;;;;5017715;28;20505;-91
2023/07/11 07:34:38;;;;;;;2.10;1.88;;;29.50;50.20;;;;;;5016419;28;20199;-91
2023/07/11 07:37:15;;;;;;;1.92;1.73;;;29.60;50.20;;;;;;5016755;28;20190;-92
2023/07/11 07:39:44;;;;;;;1.60;1.50;;;29.60;50.10;;;;;;5025752;28;20478;-93
2023/07/11 07:42:12;;;;;;;2.22;1.85;;;29.70;50.10;;;;;;5014602;28;20188;-93
2023/07/11 07:44:39;;;;;;;1.67;1.58;;;29.80;50.00;;;;;;5018434;28;20173;-93
2023/07/11 07:47:17;;;;;;;1.73;1.60;;;29.80;50.00;;;;;;5017251;28;20177;-92
2023/07/11 07:49:45;;;;;;;1.63;1.52;;;29.90;50.00;;;;;;5005393;28;20205;-92
2023/07/11 07:52:11;;;;;;;1.58;1.48;;;30.10;49.90;;;;;;5017724;28;20188;-92
2023/07/11 07:54:37;;;;;;;2.40;1.70;;;30.40;49.70;;;;;;5006705;28;20555;-93
2023/07/11 07:57:06;;;;;;;2.40;1.73;;;30.60;49.50;;;;;;5017848;28;20173;-92
2023/07/11 07:59:38;;;;;;;2.10;1.70;;;30.70;49.20;;;;;;5017876;28;20185;-92
2023/07/11 08:02:09;;;;;;;1.73;1.60;;;30.90;49.10;;;;;;5015959;28;20165;-94
2023/07/11 08:04:35;;;;;;;1.77;1.60;;;30.90;49.00;;;;;;5009789;28;20295;-92
2023/07/11 08:07:00;;;;;;;1.70;1.58;;;31.00;48.90;;;;;;5016496;28;20358;-92
2023/07/11 08:09:29;;;;;;;2.45;1.80;;;31.00;48.90;;;;;;5018564;28;20230;-91
2023/07/11 08:12:03;;;;;;;2.30;1.92;;;31.00;49.00;;;;;;5017085;28;20321;-92
2023/07/11 08:14:29;;;;;;;1.90;1.70;;;31.00;49.00;;;;;;5013798;28;20177;-93
2023/07/11 08:16:57;;;;;;;2.00;1.80;;;31.00;49.00;;;;;;5013932;28;20203;-92
2023/07/11 08:19:22;;;;;;;2.00;1.70;;;31.00;49.40;;;;;;5026866;28;20323;-92
2023/07/11 08:21:52;;;;;;;2.13;1.65;;;31.00;49.00;;;;;;5016360;28;20271;-94
2023/07/11 08:24:17;;;;;;;3.17;1.80;;;31.00;49.10;;;;;;5018185;28;20180;-92
2023/07/11 08:26:43;;;;;;;1.70;1.60;;;31.00;49.10;;;;;;5016424;28;20249;-91
2023/07/11 08:29:09;;;;;;;1.90;1.80;;;31.00;49.10;;;;;;5016711;28;20495;-92
2023/07/11 08:31:35;;;;;;;1.70;1.60;;;31.00;49.20;;;;;;5014861;28;20574;-92
2023/07/11 08:34:06;;;;;;;1.83;1.70;;;31.00;49.20;;;;;;5017681;28;20193;-92
2023/07/11 08:36:40;;;;;;;1.75;1.60;;;31.00;49.20;;;;;;5016119;28;20184;-94
2023/07/11 08:39:06;;;;;;;2.50;1.65;;;31.00;49.40;;;;;;5017303;28;20602;-90
2023/07/11 08:42:10;;;;;;;2.33;1.90;;;30.90;49.30;;;;;;5016410;28;20837;-91
2023/07/11 08:45:30;;;;;;;2.00;1.80;;;31.00;49.40;;;;;;4992711;28;20634;-91
2023/07/11 08:48:36;;;;;;;2.28;1.75;;;31.00;49.50;;;;;;5007683;28;20624;-90
2023/07/11 08:51:29;;;;;;;2.00;1.63;;;31.00;49.50;;;;;;4988406;28;20190;-92
2023/07/11 08:54:31;;;;;;;2.45;2.00;;;31.00;49.60;;;;;;4973543;28;20224;-90
2023/07/11 08:57:01;;;;;;;2.97;1.80;;;31.10;49.60;;;;;;5015536;28;20290;-92
2023/07/11 08:59:50;;;;;;;3.75;2.00;;;31.10;49.50;;;;;;5015878;28;20192;-92
2023/07/11 09:02:44;;;;;;;1.98;1.73;;;31.10;50.00;;;;;;5036580;28;20236;-92
2023/07/11 09:05:17;;;;;;;2.10;1.90;;;31.20;49.50;;;;;;5016126;28;20349;-92
2023/07/11 09:07:47;;;;;;;2.55;1.98;;;31.20;49.50;;;;;;5016480;28;20181;-92
2023/07/11 09:10:38;;;;;;;3.08;1.70;;;31.20;49.60;;;;;;5018013;28;20176;-91
2023/07/11 09:17:17;;;;;;;2.40;1.98;;;31.20;49.50;;;;;;5028653;28;20252;-93
2023/07/11 09:19:58;;;;;;;2.40;1.90;;;31.30;49.50;;;;;;5003825;28;20229;-93
2023/07/11 09:26:17;;;;;;;3.47;2.22;;;31.40;49.50;;;;;;4963483;28;20721;-93
2023/07/11 09:28:59;;;;;;;2.15;1.95;;;31.40;49.50;;;;;;5029781;28;20197;-93
2023/07/11 09:31:39;;;;;;;2.30;1.92;;;31.50;49.50;;;;;;5001262;28;20242;-93
2023/07/11 09:34:32;;;;;;;3.65;1.90;;;31.50;49.40;;;;;;5014690;28;20299;-94
2023/07/11 09:37:41;;;;;;;2.20;2.05;;;31.50;49.40;;;;;;5013657;28;20177;-93
2023/07/11 09:40:35;;;;;;;1.95;1.80;;;31.50;49.40;;;;;;5031206;28;20590;-93
2023/07/11 09:43:04;;;;;;;2.25;1.98;;;31.60;49.40;;;;;;5014247;28;20181;-94
2023/07/11 09:45:46;;;;;;;3.50;2.00;;;31.60;49.40;;;;;;5016042;28;20173;-93
2023/07/11 09:48:22;;;;;;;2.42;1.88;;;31.70;49.40;;;;;;5007505;28;20204;-93
2023/07/11 09:51:25;;;;;;;2.72;2.10;;;31.70;49.40;;;;;;5008828;28;20432;-93
2023/07/11 09:54:18;;;;;;;2.30;2.10;;;31.70;49.40;;;;;;5024288;28;20446;-93
2023/07/11 09:56:48;;;;;;;2.00;1.80;;;31.70;49.40;;;;;;5023882;28;20203;-93
2023/07/11 09:59:15;;;;;;;2.45;1.90;;;31.60;49.50;;;;;;5009820;28;20446;-93
2023/07/11 10:01:41;;;;;;;2.45;2.10;;;31.60;49.60;;;;;;5007475;28;20180;-93
2023/07/11 10:04:13;;;;;;;2.22;1.80;;;31.60;49.60;;;;;;5005850;28;20193;-93
2023/07/11 10:06:42;;;;;;;2.88;1.88;;;31.60;49.60;;;;;;5007817;28;20187;-93
2023/07/11 10:10:13;;;;;;;2.60;2.10;;;31.60;49.60;;;;;;5006759;28;20251;-94
2023/07/11 10:12:50;;;;;;;2.55;1.95;;;31.60;49.60;;;;;;4978495;28;20185;-93
2023/07/11 10:15:32;;;;;;;2.00;1.80;;;31.60;49.60;;;;;;5016621;28;20184;-92
2023/07/11 10:17:57;;;;;;;2.72;2.03;;;31.60;49.70;;;;;;5022975;28;20247;-92
2023/07/11 10:20:26;;;;;;;2.08;1.80;;;31.70;49.80;;;;;;5012698;28;20325;-92
2023/07/11 10:23:00;;;;;;;2.05;1.70;;;31.70;49.80;;;;;;5014188;28;20201;-92
2023/07/11 10:25:31;;;;;;;2.30;1.92;;;31.70;49.80;;;;;;5014622;28;20183;-91
2023/07/11 10:28:25;;;;;;;2.47;2.08;;;31.70;49.80;;;;;;5016188;28;20363;-92
2023/07/11 10:30:52;;;;;;;2.10;1.90;;;31.70;49.80;;;;;;5011445;28;20221;-92
2023/07/11 10:33:29;;;;;;;3.03;2.05;;;31.70;49.90;;;;;;5012358;28;20188;-92
2023/07/11 10:36:12;;;;;;;1.90;1.80;;;31.70;49.90;;;;;;5012141;28;20181;-92
2023/07/11 10:38:55;;;;;;;2.53;2.00;;;31.70;49.90;;;;;;5011286;28;20188;-92
2023/07/11 10:41:51;;;;;;;3.13;2.00;;;31.70;49.90;;;;;;5019541;28;20192;-92
2023/07/11 10:44:25;;;;;;;2.42;2.10;;;31.70;49.90;;;;;;5003474;28;20189;-92
2023/07/11 10:46:55;;;;;;;2.10;1.85;;;31.70;49.90;;;;;;5010654;28;20181;-93
2023/07/11 10:49:52;;;;;;;2.13;1.90;;;31.70;49.90;;;;;;5009893;28;20447;-92
2023/07/11 10:52:26;;;;;;;;;;;31.70;50.00;;;;;;5027236;28;20151;-92
2023/07/11 10:55:01;;;;;;;;;;;31.70;49.90;;;;;;5018701;28;20218;-92
2023/07/11 10:57:41;;;;;;;2.00;1.80;;;31.70;50.00;;;;;;5006226;28;19909;-92
2023/07/11 11:00:30;;;;;;;;;;;31.70;50.00;;;;;;5018728;28;20172;-92
2023/07/11 11:02:55;;;;;;;;;;;31.80;50.00;;;;;;4986576;28;19909;-92
2023/07/11 11:05:30;;;;;;;;;;;31.80;50.00;;;;;;5022832;28;19905;-92
2023/07/11 11:08:06;;;;;;;;;;;31.80;50.00;;;;;;5022182;28;19962;-92
2023/07/11 11:10:52;;;;;;;2.67;1.90;;;31.80;50.00;;;;;;5010595;28;19940;-92
2023/07/11 11:14:05;;;;;;;2.78;1.90;;;31.80;50.00;;;;;;4953010;28;20213;-92
2023/07/11 11:16:41;;;;;;;2.30;1.70;;;31.80;50.00;;;;;;4962971;28;20191;-92
2023/07/11 11:19:26;;;;;;;3.63;1.70;;;31.80;50.10;;;;;;5005860;28;20180;-92
2023/07/11 11:22:29;;;;;;;1.90;1.80;;;31.80;50.10;;;;;;5020025;28;20259;-93
2023/07/11 11:25:43;;;;;;;1.95;1.73;;;31.80;50.10;;;;;;5026677;28;20256;-92
2023/07/11 11:29:00;;;;;;;1.88;1.70;;;31.80;50.10;;;;;;4958375;28;20202;-93
2023/07/11 11:31:33;;;;;;;2.58;1.90;;;31.80;50.20;;;;;;4969569;28;20299;-92
2023/07/11 11:34:04;;;;;;;2.22;1.88;;;31.90;50.20;;;;;;5009286;28;20574;-93
2023/07/11 11:37:07;;;;;;;2.22;1.80;;;31.90;50.30;;;;;;5025823;28;20388;-92
2023/07/11 11:40:12;;;;;;;2.40;1.80;;;31.80;50.30;;;;;;5027120;28;20181;-93
2023/07/11 11:42:40;;;;;;;;;;;31.90;50.30;;;;;;5019485;28;20223;-92
2023/07/11 11:48:29;;;;;;;;;;;31.90;50.30;;;;;;4990152;28;20160;-93
2023/07/11 11:50:55;;;;;;;;;;;31.90;50.40;;;;;;5009687;28;19915;-92
2023/07/11 11:53:52;;;;;;;;;;;31.90;50.30;;;;;;5025555;28;20135;-92
2023/07/11 11:56:19;;;;;;;;;;;31.90;50.40;;;;;;5028221;28;20340;-92
2023/07/11 11:58:50;;;;;;;;;;;31.90;50.40;;;;;;5015666;28;19982;-92
2023/07/11 12:01:34;;;;;;;;;;;31.90;50.40;;;;;;5024498;28;19904;-92
2023/07/11 12:07:12;;;;;;;;;;;31.90;50.40;;;;;;5027949;28;19955;-93
2023/07/11 12:09:46;;;;;;;;;;;32.00;50.50;;;;;;5025768;28;19932;-92
2023/07/11 12:12:16;;;;;;;;;;;32.00;50.50;;;;;;5003440;28;19913;-92
2023/07/11 12:15:06;;;;;;;;;;;32.00;50.50;;;;;;5011184;28;19996;-92
2023/07/11 12:17:31;;;;;;;;;;;32.00;50.60;;;;;;5008427;28;19909;-93
2023/07/11 12:20:23;;;;;;;;;;;32.00;50.60;;;;;;5013708;28;19912;-92
2023/07/11 12:22:49;;;;;;;;;;;32.00;50.60;;;;;;4980943;28;20002;-92
2023/07/11 12:25:14;;;;;;;;;;;32.00;50.60;;;;;;5015784;28;19967;-92
2023/07/11 12:28:00;;;;;;;;;;;32.10;50.70;;;;;;5024562;28;19904;-93
2023/07/11 12:30:26;;;;;;;;;;;32.00;50.60;;;;;;5008947;28;19921;-93
2023/07/11 12:33:15;;;;;;;;;;;32.10;51.10;;;;;;5011686;28;19967;-92
2023/07/11 12:35:44;;;;;;;2.03;1.83;;;32.10;50.70;;;;;;5019305;28;20296;-92
2023/07/11 12:38:31;;;;;;;2.35;1.70;;;32.10;50.80;;;;;;5005121;28;20547;-92
2023/07/11 12:41:03;;;;;;;2.13;1.80;;;32.10;50.80;;;;;;5002074;28;20202;-93
2023/07/11 12:43:32;;;;;;;2.08;1.85;;;32.10;50.80;;;;;;5021888;28;20188;-92
2023/07/11 12:46:01;;;;;;;2.00;1.70;;;32.10;50.80;;;;;;4999911;28;20489;-92
2023/07/11 12:48:43;;;;;;;5.07;2.03;;;32.10;50.80;;;;;;5006344;28;20204;-93
2023/07/11 12:51:21;;;;;;;2.83;1.85;;;32.10;50.80;;;;;;5006700;28;20176;-92
2023/07/11 12:54:26;;;;;;;2.47;2.03;;;32.10;50.80;;;;;;5017321;28;20199;-93
2023/07/11 12:56:57;;;;;;;2.00;1.80;;;32.10;50.80;;;;;;5018562;28;20196;-92
2023/07/11 12:59:28;;;;;;;2.30;1.90;;;32.20;50.90;;;;;;5006354;28;20567;-93
2023/07/11 13:02:04;;;;;;;1.70;1.60;;;32.10;50.90;;;;;;5015722;28;20178;-92
2023/07/11 13:04:42;;;;;;;2.28;2.05;;;32.10;50.90;;;;;;5006609;28;20191;-92
2023/07/11 13:07:35;;;;;;;2.13;1.67;;;32.10;50.90;;;;;;5006787;28;20246;-92
2023/07/11 13:10:19;;;;;;;1.80;1.70;;;32.10;50.90;;;;;;5005521;28;20208;-93
2023/07/11 13:12:44;;;;;;;2.15;1.95;;;32.20;51.00;;;;;;5003982;28;20180;-92
2023/07/11 13:15:15;;;;;;;;;;;32.20;51.00;;;;;;5004958;28;20394;-93
2023/07/11 13:17:43;;;;;;;;;;;32.20;51.00;;;;;;5012424;28;19909;-93
2023/07/11 13:20:27;;;;;;;1.80;1.70;;;32.20;51.00;;;;;;5009802;28;21690;-92
2023/07/11 13:22:53;;;;;;;1.90;1.70;;;32.20;51.00;;;;;;5002807;28;20177;-93
2023/07/11 13:25:34;;;;;;;1.77;1.67;;;32.20;51.00;;;;;;5006587;28;20268;-93
2023/07/11 13:28:14;;;;;;;2.50;1.90;;;32.20;51.10;;;;;;5006747;28;20445;-92
2023/07/11 13:30:39;;;;;;;1.85;1.70;;;32.20;51.10;;;;;;5016581;28;20181;-92
2023/07/11 13:33:16;;;;;;;1.90;1.80;;;32.20;51.10;;;;;;5007649;28;20200;-92
2023/07/11 13:35:57;;;;;;;2.30;2.10;;;32.20;51.10;;;;;;5017941;28;20185;-92
2023/07/11 13:38:40;;;;;;;2.95;2.08;;;32.20;51.10;;;;;;5005110;28;20361;-92
2023/07/11 13:41:14;;;;;;;2.00;1.80;;;32.20;51.10;;;;;;5006405;28;20185;-93
2023/07/11 13:43:41;;;;;;;2.40;2.00;;;32.20;51.10;;;;;;5003816;28;20460;-93
2023/07/11 13:46:07;;;;;;;2.20;2.00;;;32.20;51.10;;;;;;5004748;28;20712;-92
2023/07/11 13:48:36;;;;;;;2.40;2.20;;;32.30;51.20;;;;;;5005674;28;20004;-92
2023/07/11 13:51:46;;;;;;;2.28;1.95;;;32.30;51.20;;;;;;5003409;28;20433;-92
2023/07/11 13:54:24;;;;;;;2.50;2.20;;;32.30;51.20;;;;;;4995058;28;20488;-93
2023/07/11 13:56:53;;;;;;;;;;;32.30;51.20;;;;;;5002803;28;19909;-93
2023/07/11 13:59:21;;;;;;;;;;;32.30;51.20;;;;;;5010580;28;19920;-93
2023/07/11 14:01:46;;;;;;;;;;;32.30;51.20;;;;;;5005655;28;19920;-93
2023/07/11 14:04:22;;;;;;;2.70;2.20;;;32.30;51.30;;;;;;5012313;28;20003;-93
2023/07/11 14:06:47;;;;;;;2.78;1.90;;;32.30;51.30;;;;;;5017941;28;20212;-93
2023/07/11 14:09:13;;;;;;;;;;;32.30;51.30;;;;;;5006046;28;20800;-92
2023/07/11 14:11:45;;;;;;;;;;;32.30;51.30;;;;;;5004825;28;20066;-92
2023/07/11 14:14:31;;;;;;;2.30;2.08;;;32.30;51.30;;;;;;5005776;28;19908;-92
2023/07/11 14:16:58;;;;;;;2.28;2.08;;;32.30;51.30;;;;;;5000727;28;20640;-92
2023/07/11 14:19:30;;;;;;;2.45;1.98;;;32.40;51.40;;;;;;5009793;28;20276;-93
2023/07/11 14:21:56;;;;;;;2.72;1.95;;;32.40;51.40;;;;;;5009410;28;20551;-93
2023/07/11 14:24:26;;;;;;;2.83;1.92;;;32.40;51.40;;;;;;5005147;28;20267;-92
2023/07/11 14:26:52;;;;;;;2.08;1.88;;;32.40;51.40;;;;;;5008948;28;20185;-92
2023/07/11 14:29:26;;;;;;;2.50;2.10;;;32.40;51.40;;;;;;5008062;28;20270;-93
2023/07/11 14:31:53;;;;;;;2.25;2.05;;;32.40;51.40;;;;;;5022703;28;20176;-93